createdAt,value
2023-02-23T00:01:28.182Z,48.93
2023-02-23T00:03:58.114Z,54.13
2023-02-23T00:06:30.220Z,52.77
2023-02-23T00:09:01.246Z,55.40
2023-02-23T00:11:33.708Z,57.40
2023-02-23T00:14:03.475Z,58.43
2023-02-23T00:16:31.638Z,55.90
2023-02-23T00:19:02.477Z,59.10
2023-02-23T00:21:35.099Z,56.83
2023-02-23T00:24:06.152Z,57.83
2023-02-23T00:26:37.494Z,58.87
2023-02-23T00:29:09.468Z,53.40
2023-02-23T00:31:38.625Z,61.00
2023-02-23T00:34:11.427Z,58.30
2023-02-23T00:36:40.104Z,55.00
2023-02-23T00:39:22.479Z,59.23
2023-02-23T00:41:55.713Z,56.07
2023-02-23T00:44:25.445Z,53.40
2023-02-23T00:46:56.126Z,54.83
2023-02-23T00:49:27.282Z,56.53
2023-02-23T00:51:55.800Z,54.93
2023-02-23T00:54:23.928Z,57.20
2023-02-23T00:56:52.576Z,51.23
2023-02-23T00:59:25.484Z,45.33
2023-02-23T01:01:55.863Z,50.80
2023-02-23T01:04:24.215Z,46.43
2023-02-23T01:06:54.575Z,49.10
2023-02-23T01:09:28.243Z,61.77
2023-02-23T01:12:01.585Z,54.17
2023-02-23T01:14:31.493Z,50.80
2023-02-23T01:16:59.902Z,50.57
2023-02-23T01:19:34.053Z,49.13
2023-02-23T01:22:04.496Z,49.37
2023-02-23T01:24:32.593Z,51.73
2023-02-23T01:27:00.764Z,47.97
2023-02-23T01:29:32.520Z,52.43
2023-02-23T01:32:02.657Z,51.93
2023-02-23T01:34:32.740Z,54.50
2023-02-23T01:37:04.381Z,53.43
2023-02-23T01:39:34.213Z,53.47
2023-02-23T01:42:05.614Z,51.37
2023-02-23T01:45:22.081Z,51.20
2023-02-23T01:47:52.996Z,53.50
2023-02-23T01:50:23.788Z,49.73
2023-02-23T01:52:53.226Z,50.63
2023-02-23T01:55:24.200Z,50.33
2023-02-23T01:57:57.229Z,47.83
2023-02-23T02:00:28.252Z,50.67
2023-02-23T02:02:58.236Z,48.60
2023-02-23T02:05:30.901Z,47.80
2023-02-23T02:07:59.697Z,46.50
2023-02-23T02:10:44.520Z,52.60
2023-02-23T02:13:22.764Z,51.63
2023-02-23T02:16:13.157Z,50.00
2023-02-23T02:18:53.379Z,46.23
2023-02-23T02:22:01.815Z,51.37
2023-02-23T02:25:00.826Z,54.43
2023-02-23T02:27:47.423Z,57.63
2023-02-23T02:30:44.198Z,51.13
2023-02-23T02:33:45.818Z,53.43
2023-02-23T02:36:58.547Z,57.80
2023-02-23T02:39:36.530Z,50.60
2023-02-23T02:42:17.966Z,49.77
2023-02-23T02:44:56.915Z,56.40
2023-02-23T02:47:31.576Z,51.53
2023-02-23T02:50:08.832Z,52.73
2023-02-23T02:52:44.229Z,58.17
2023-02-23T02:55:19.685Z,56.20
2023-02-23T02:57:48.542Z,50.07
2023-02-23T03:00:40.530Z,55.87
2023-02-23T03:03:45.736Z,60.90
2023-02-23T03:06:31.611Z,65.13
2023-02-23T03:09:24.465Z,59.77
2023-02-23T03:12:21.158Z,63.07
2023-02-23T03:15:17.897Z,60.80
2023-02-23T03:18:06.301Z,58.07
2023-02-23T03:21:01.254Z,58.97
2023-02-23T03:23:59.422Z,57.23
2023-02-23T03:26:51.473Z,56.47
2023-02-23T03:29:55.535Z,59.93
2023-02-23T03:32:45.780Z,61.30
2023-02-23T03:35:40.301Z,60.07
2023-02-23T03:38:30.264Z,53.40
2023-02-23T03:41:18.870Z,50.47
2023-02-23T03:44:10.145Z,56.70
2023-02-23T03:47:02.156Z,61.60
2023-02-23T03:49:51.751Z,70.20
2023-02-23T03:52:41.575Z,67.07
2023-02-23T03:55:34.640Z,63.63
2023-02-23T03:58:21.509Z,62.50
2023-02-23T04:01:12.106Z,55.60
2023-02-23T04:04:03.245Z,61.37
2023-02-23T04:06:54.541Z,67.50
2023-02-23T04:09:40.274Z,74.07
2023-02-23T04:12:31.899Z,73.73
2023-02-23T04:15:05.975Z,76.70
2023-02-23T04:17:34.704Z,71.43
2023-02-23T04:20:04.580Z,75.87
2023-02-23T04:22:32.690Z,80.07
2023-02-23T04:25:01.210Z,73.73
2023-02-23T04:27:29.325Z,75.30
2023-02-23T04:29:57.443Z,72.40
2023-02-23T04:32:25.732Z,67.80
2023-02-23T04:34:54.039Z,66.20
2023-02-23T04:37:23.513Z,64.63
2023-02-23T04:39:51.640Z,63.70
2023-02-23T04:42:20.331Z,61.87
2023-02-23T04:44:50.965Z,61.13
2023-02-23T04:47:19.196Z,60.60
2023-02-23T04:49:47.348Z,63.10
2023-02-23T04:52:15.588Z,63.53
2023-02-23T04:54:45.056Z,60.43
2023-02-23T04:57:15.338Z,64.27
2023-02-23T04:59:43.510Z,63.20
2023-02-23T05:02:11.867Z,56.70
2023-02-23T05:04:42.359Z,60.13
2023-02-23T05:07:10.423Z,60.60
2023-02-23T05:09:39.113Z,61.13
2023-02-23T05:12:09.388Z,61.70
2023-02-23T05:14:37.504Z,58.60
2023-02-23T05:17:07.649Z,55.60
2023-02-23T05:19:37.285Z,61.77
2023-02-23T05:22:05.605Z,55.43
2023-02-23T05:24:34.155Z,60.67
2023-02-23T05:27:02.474Z,55.97
2023-02-23T05:29:32.280Z,53.67
2023-02-23T05:32:00.651Z,55.97
2023-02-23T05:34:29.236Z,58.13
2023-02-23T05:36:57.506Z,53.07
2023-02-23T05:39:25.899Z,54.63
2023-02-23T05:41:54.099Z,54.20
2023-02-23T05:44:22.299Z,65.23
2023-02-23T05:46:51.883Z,61.63
2023-02-23T05:49:20.170Z,62.03
2023-02-23T05:51:51.597Z,74.00
2023-02-23T05:54:19.788Z,65.13
2023-02-23T05:56:47.963Z,67.23
2023-02-23T05:59:19.134Z,70.57
2023-02-23T06:01:47.402Z,62.77
2023-02-23T06:04:17.356Z,66.60
2023-02-23T06:06:45.808Z,62.10
2023-02-23T06:09:14.099Z,61.37
2023-02-23T06:11:42.371Z,61.10
2023-02-23T06:14:10.586Z,62.93
2023-02-23T06:16:39.358Z,59.60
2023-02-23T06:19:07.988Z,60.07
2023-02-23T06:21:37.468Z,63.90
2023-02-23T06:24:06.483Z,66.50
2023-02-23T06:26:35.304Z,56.77
2023-02-23T06:29:03.418Z,60.73
2023-02-23T06:31:31.591Z,60.97
2023-02-23T06:33:59.717Z,58.03
2023-02-23T06:36:27.902Z,58.70
2023-02-23T06:38:59.298Z,58.40
2023-02-23T06:41:28.135Z,58.23
2023-02-23T06:43:58.415Z,60.57
2023-02-23T06:46:26.655Z,57.77
2023-02-23T06:48:57.445Z,66.43
2023-02-23T06:51:25.561Z,59.33
2023-02-23T06:53:53.773Z,59.40
2023-02-23T06:56:23.259Z,67.43
2023-02-23T06:58:51.444Z,63.17
2023-02-23T07:01:19.928Z,63.47
2023-02-23T07:03:50.623Z,61.20
2023-02-23T07:06:18.736Z,63.63
2023-02-23T07:08:49.094Z,60.17
2023-02-23T07:11:19.194Z,60.70
2023-02-23T07:13:51.050Z,62.67
2023-02-23T07:16:19.262Z,58.80
2023-02-23T07:18:50.398Z,65.87
2023-02-23T07:21:18.771Z,62.30
2023-02-23T07:23:48.019Z,57.87
2023-02-23T07:26:16.704Z,58.83
2023-02-23T07:28:45.329Z,57.03
2023-02-23T07:31:14.880Z,60.67
2023-02-23T07:33:45.285Z,54.53
2023-02-23T07:36:13.408Z,54.97
2023-02-23T07:38:41.523Z,53.03
2023-02-23T07:41:10.786Z,52.83
2023-02-23T07:43:41.275Z,54.30
2023-02-23T07:46:11.687Z,56.90
2023-02-23T07:48:45.085Z,56.10
2023-02-23T07:51:17.709Z,63.03
2023-02-23T07:53:46.136Z,67.63
2023-02-23T07:56:14.452Z,60.33
2023-02-23T07:58:45.975Z,57.03
2023-02-23T08:01:15.067Z,58.77
2023-02-23T08:03:49.640Z,61.07
2023-02-23T08:06:18.525Z,59.60
2023-02-23T08:08:46.702Z,56.47
2023-02-23T08:11:15.801Z,62.33
2023-02-23T08:13:43.992Z,59.20
2023-02-23T08:16:12.561Z,57.17
2023-02-23T08:18:40.753Z,53.57
2023-02-23T08:21:10.451Z,57.50
2023-02-23T08:23:38.580Z,65.77
2023-02-23T08:26:08.743Z,69.90
2023-02-23T08:28:36.856Z,66.57
2023-02-23T08:31:09.798Z,67.33
2023-02-23T08:33:38.781Z,65.20
2023-02-23T08:36:11.152Z,77.43
2023-02-23T08:38:44.111Z,68.00
2023-02-23T08:41:12.282Z,67.90
2023-02-23T08:43:40.418Z,62.90
2023-02-23T08:46:08.713Z,71.27
2023-02-23T08:48:40.652Z,67.13
2023-02-23T08:51:10.477Z,82.83
2023-02-23T08:53:41.443Z,80.43
2023-02-23T08:56:11.524Z,73.33
2023-02-23T08:58:40.174Z,71.23
2023-02-23T09:01:08.541Z,67.23
2023-02-23T09:03:38.816Z,67.30
2023-02-23T09:06:11.477Z,74.47
2023-02-23T09:08:39.697Z,74.67
2023-02-23T09:11:10.076Z,67.00
2023-02-23T09:13:40.229Z,70.47
2023-02-23T09:16:10.683Z,81.13
2023-02-23T09:18:39.227Z,78.03
2023-02-23T09:21:10.767Z,81.00
2023-02-23T09:23:42.738Z,79.57
2023-02-23T09:26:12.353Z,79.23
2023-02-23T09:28:41.327Z,77.73
2023-02-23T09:31:10.497Z,74.03
2023-02-23T09:33:41.117Z,78.23
2023-02-23T09:36:12.935Z,76.53
2023-02-23T09:38:42.427Z,81.70
2023-02-23T09:41:39.615Z,77.40
2023-02-23T09:44:19.568Z,76.33
2023-02-23T09:46:57.474Z,73.93
2023-02-23T09:49:29.746Z,75.63
2023-02-23T09:52:01.675Z,74.83
2023-02-23T09:54:35.636Z,75.20
2023-02-23T09:57:06.378Z,70.20
2023-02-23T09:59:36.138Z,67.10
2023-02-23T10:02:09.872Z,64.37
2023-02-23T10:04:45.157Z,58.70
2023-02-23T10:07:17.841Z,58.90
2023-02-23T10:10:00.066Z,64.93
2023-02-23T10:12:34.553Z,60.73
2023-02-23T10:15:17.109Z,62.43
2023-02-23T10:17:55.444Z,56.23
2023-02-23T10:20:31.427Z,67.50
2023-02-23T10:23:06.826Z,58.13
2023-02-23T10:25:41.314Z,54.50
2023-02-23T10:28:16.037Z,55.73
2023-02-23T10:30:44.816Z,47.07
2023-02-23T10:33:17.764Z,46.07
2023-02-23T10:35:46.504Z,47.73
2023-02-23T10:38:18.379Z,43.67
2023-02-23T10:40:51.962Z,43.17
2023-02-23T10:43:22.099Z,41.97
2023-02-23T10:45:54.184Z,41.87
2023-02-23T10:48:25.579Z,39.70
2023-02-23T10:51:02.773Z,36.20
2023-02-23T10:53:36.120Z,36.83
2023-02-23T10:56:10.749Z,34.20
2023-02-23T10:58:45.096Z,35.17
2023-02-23T11:01:16.980Z,31.40
2023-02-23T11:03:57.574Z,31.37
2023-02-23T11:06:33.212Z,32.40
2023-02-23T11:09:33.081Z,31.27
2023-02-23T11:12:21.794Z,31.77
2023-02-23T11:14:50.680Z,25.23
2023-02-23T11:17:31.380Z,29.53
2023-02-23T11:20:02.702Z,28.07
2023-02-23T11:22:36.410Z,28.50
2023-02-23T11:25:16.515Z,25.70
2023-02-23T11:27:51.563Z,27.10
2023-02-23T11:30:24.557Z,28.43
2023-02-23T11:32:54.182Z,25.67
2023-02-23T11:35:31.792Z,26.00
2023-02-23T11:38:00.039Z,28.40
2023-02-23T11:40:29.825Z,26.40
2023-02-23T11:43:09.133Z,22.00
2023-02-23T11:45:45.858Z,25.80
2023-02-23T11:48:23.375Z,25.37
2023-02-23T11:50:53.004Z,24.67
2023-02-23T11:53:28.479Z,19.63
2023-02-23T11:56:02.730Z,20.50
2023-02-23T11:58:39.223Z,18.17
2023-02-23T12:01:12.203Z,20.10
2023-02-23T12:03:47.716Z,18.67
2023-02-23T12:06:29.967Z,19.03
2023-02-23T12:09:04.588Z,17.83
2023-02-23T12:11:40.181Z,22.63
2023-02-23T12:14:21.709Z,20.50
2023-02-23T12:16:53.588Z,23.37
2023-02-23T12:19:28.873Z,18.23
2023-02-23T12:22:06.619Z,17.60
2023-02-23T12:24:48.340Z,19.30
2023-02-23T12:27:19.197Z,18.07
2023-02-23T12:30:06.278Z,18.83
2023-02-23T12:32:46.685Z,19.50
2023-02-23T12:35:22.826Z,16.80
2023-02-23T12:37:57.423Z,19.47
2023-02-23T12:40:29.080Z,20.50
2023-02-23T12:43:03.433Z,19.00
2023-02-23T12:45:41.950Z,21.27
2023-02-23T12:48:21.173Z,22.27
2023-02-23T12:50:53.967Z,25.03
2023-02-23T12:53:30.430Z,22.07
2023-02-23T12:56:12.679Z,24.83
2023-02-23T12:58:51.666Z,24.23
2023-02-23T13:01:28.274Z,26.67
2023-02-23T13:04:22.198Z,26.40
2023-02-23T13:06:56.961Z,25.47
2023-02-23T13:09:39.469Z,28.30
2023-02-23T13:12:36.257Z,24.97
2023-02-23T13:15:19.917Z,27.37
2023-02-23T13:17:57.182Z,24.70
2023-02-23T13:20:33.641Z,26.60
2023-02-23T13:23:12.620Z,29.70
2023-02-23T13:25:49.701Z,29.13
2023-02-23T13:28:21.897Z,33.77
2023-02-23T13:30:50.129Z,29.93
2023-02-23T13:33:34.946Z,32.63
2023-02-23T13:36:09.513Z,32.53
2023-02-23T13:38:47.140Z,34.67
2023-02-23T13:41:31.224Z,30.67
2023-02-23T13:44:04.713Z,37.27
2023-02-23T13:46:41.885Z,35.33
2023-02-23T13:49:28.536Z,30.83
2023-02-23T13:52:03.753Z,34.67
2023-02-23T13:54:34.626Z,31.73
2023-02-23T13:57:05.622Z,29.43
2023-02-23T13:59:42.836Z,26.23
2023-02-23T14:02:33.165Z,26.73
2023-02-23T14:05:07.851Z,30.57
2023-02-23T14:07:43.289Z,24.27
2023-02-23T14:10:19.537Z,23.20
2023-02-23T14:13:07.475Z,23.03
2023-02-23T14:15:46.150Z,23.53
2023-02-23T14:18:35.732Z,25.40
2023-02-23T14:21:19.010Z,23.60
2023-02-23T14:23:53.448Z,22.97
2023-02-23T14:26:39.981Z,26.97
2023-02-23T14:29:26.797Z,24.50
2023-02-23T14:32:04.700Z,24.27
2023-02-23T14:34:48.434Z,21.20
2023-02-23T14:37:26.496Z,23.27
2023-02-23T14:39:57.825Z,24.10
2023-02-23T14:42:28.151Z,23.83
2023-02-23T14:44:57.304Z,25.63
2023-02-23T14:47:28.488Z,26.47
2023-02-23T14:49:59.300Z,20.87
2023-02-23T14:52:31.017Z,19.50
2023-02-23T14:55:17.602Z,21.33
2023-02-23T14:57:45.948Z,16.53
2023-02-23T15:00:23.225Z,19.93
2023-02-23T15:02:57.658Z,17.00
2023-02-23T15:05:32.984Z,17.00
2023-02-23T15:08:06.101Z,19.27
2023-02-23T15:10:37.056Z,19.13
2023-02-23T15:13:11.265Z,21.33
2023-02-23T15:15:45.347Z,18.80
2023-02-23T15:18:22.544Z,19.13
2023-02-23T15:20:51.314Z,18.70
2023-02-23T15:23:22.035Z,17.07
2023-02-23T15:25:51.306Z,16.47
2023-02-23T15:28:25.399Z,22.27
2023-02-23T15:30:55.931Z,17.27
2023-02-23T15:33:28.900Z,17.93
2023-02-23T15:36:08.612Z,20.03
2023-02-23T15:38:44.169Z,19.00
2023-02-23T15:41:19.586Z,19.20
2023-02-23T15:43:50.443Z,20.80
2023-02-23T15:46:25.874Z,18.03
2023-02-23T15:48:56.743Z,18.30
2023-02-23T15:51:33.381Z,17.43
2023-02-23T15:54:13.636Z,23.38
2023-02-23T15:56:46.881Z,22.57
2023-02-23T15:59:24.020Z,21.07
2023-02-23T16:01:56.054Z,18.33
2023-02-23T16:04:32.456Z,22.00
2023-02-23T16:07:16.991Z,20.67
2023-02-23T16:09:54.561Z,23.07
2023-02-23T16:12:25.762Z,19.13
2023-02-23T16:14:56.210Z,20.13
2023-02-23T16:17:30.770Z,20.63
2023-02-23T16:20:14.360Z,19.63
2023-02-23T16:22:46.191Z,24.40
2023-02-23T16:25:17.526Z,27.37
2023-02-23T16:27:55.016Z,26.37
2023-02-23T16:30:37.577Z,26.60
2023-02-23T16:33:18.852Z,25.23
2023-02-23T16:35:51.610Z,27.88
2023-02-23T16:38:26.986Z,28.17
2023-02-23T16:40:56.753Z,31.03
2023-02-23T16:43:25.111Z,33.30
2023-02-23T16:45:53.593Z,29.23
2023-02-23T16:48:22.937Z,29.37
2023-02-23T16:50:51.636Z,27.27
2023-02-23T16:53:19.889Z,33.47
2023-02-23T16:55:51.981Z,32.83
2023-02-23T16:58:24.740Z,29.43
2023-02-23T17:00:54.114Z,29.20
2023-02-23T17:03:24.698Z,34.10
2023-02-23T17:05:53.679Z,32.70
2023-02-23T17:08:22.051Z,27.37
2023-02-23T17:10:53.406Z,29.07
2023-02-23T17:13:24.959Z,32.00
2023-02-23T17:15:56.970Z,31.03
2023-02-23T17:18:27.253Z,34.20
2023-02-23T17:20:57.090Z,29.97
2023-02-23T17:23:27.085Z,31.60
2023-02-23T17:25:55.869Z,28.43
2023-02-23T17:28:28.118Z,27.70
2023-02-23T17:30:56.408Z,27.43
2023-02-23T17:33:25.336Z,25.87
2023-02-23T17:35:53.580Z,27.53
2023-02-23T17:38:21.829Z,24.20
2023-02-23T17:40:50.145Z,29.30
2023-02-23T17:43:21.553Z,29.30
2023-02-23T17:45:54.644Z,27.93
2023-02-23T17:48:22.926Z,25.10
2023-02-23T17:50:58.528Z,23.27
2023-02-23T17:53:29.348Z,31.83
2023-02-23T17:55:58.055Z,27.67
2023-02-23T17:58:29.181Z,27.13
2023-02-23T18:01:00.691Z,25.67
2023-02-23T18:03:31.863Z,29.97
2023-02-23T18:06:01.493Z,30.17
2023-02-23T18:08:30.073Z,34.03
2023-02-23T18:10:59.017Z,30.07
2023-02-23T18:13:31.409Z,21.10
2023-02-23T18:16:04.144Z,19.10
2023-02-23T18:18:32.710Z,13.60
2023-02-23T18:21:02.910Z,15.67
2023-02-23T18:23:33.600Z,12.37
2023-02-23T18:26:08.432Z,15.87
2023-02-23T18:28:38.650Z,14.07
2023-02-23T18:31:08.497Z,12.27
2023-02-23T18:33:36.739Z,18.53
2023-02-23T18:36:14.422Z,18.90
2023-02-23T18:38:42.623Z,16.57
2023-02-23T18:41:11.176Z,15.70
2023-02-23T18:43:39.464Z,16.57
2023-02-23T18:46:16.888Z,17.33
2023-02-23T18:48:45.969Z,13.20
2023-02-23T18:51:14.563Z,18.20
2023-02-23T18:53:45.289Z,17.83
2023-02-23T18:56:17.589Z,21.33
2023-02-23T18:58:46.679Z,17.20
2023-02-23T19:01:20.812Z,27.37
2023-02-23T19:03:50.296Z,20.70
2023-02-23T19:06:19.628Z,15.77
2023-02-23T19:08:53.995Z,17.70
2023-02-23T19:11:24.376Z,18.70
2023-02-23T19:13:53.173Z,12.83
2023-02-23T19:16:25.378Z,16.83
2023-02-23T19:18:53.776Z,16.73
2023-02-23T19:21:22.659Z,13.70
2023-02-23T19:23:51.763Z,17.53
2023-02-23T19:26:22.890Z,13.90
2023-02-23T19:28:51.301Z,22.47
2023-02-23T19:31:22.401Z,16.03
2023-02-23T19:33:52.437Z,10.47
2023-02-23T19:36:22.451Z,14.97
2023-02-23T19:38:50.651Z,18.93
2023-02-23T19:41:22.407Z,16.63
2023-02-23T19:43:54.213Z,11.37
2023-02-23T19:46:25.577Z,17.37
2023-02-23T19:48:55.785Z,18.53
2023-02-23T19:51:24.476Z,10.37
2023-02-23T19:53:54.449Z,17.83
2023-02-23T19:56:24.850Z,17.00
2023-02-23T19:58:53.150Z,11.10
2023-02-23T20:01:27.590Z,15.80
2023-02-23T20:04:05.063Z,16.27
2023-02-23T20:06:37.384Z,14.07
2023-02-23T20:09:09.153Z,13.37
2023-02-23T20:11:37.658Z,17.10
2023-02-23T20:14:07.969Z,18.20
2023-02-23T20:16:36.785Z,16.37
2023-02-23T20:19:07.630Z,14.13
2023-02-23T20:21:36.782Z,17.93
2023-02-23T20:24:06.565Z,18.43
2023-02-23T20:26:37.157Z,12.33
2023-02-23T20:29:11.078Z,16.87
2023-02-23T20:31:41.670Z,18.00
2023-02-23T20:34:12.191Z,11.60
2023-02-23T20:36:42.600Z,12.70
2023-02-23T20:39:11.393Z,13.43
2023-02-23T20:41:43.374Z,16.43
2023-02-23T20:44:12.715Z,13.97
2023-02-23T20:46:41.864Z,13.03
2023-02-23T20:49:12.264Z,12.80
2023-02-23T20:51:42.106Z,17.53
2023-02-23T20:54:13.975Z,16.13
2023-02-23T20:56:43.569Z,18.87
2023-02-23T20:59:12.904Z,12.47
2023-02-23T21:01:45.375Z,10.27
2023-02-23T21:04:15.077Z,13.80
2023-02-23T21:06:46.002Z,16.33
2023-02-23T21:09:17.866Z,20.53
2023-02-23T21:11:49.072Z,18.53
2023-02-23T21:14:18.272Z,18.43
2023-02-23T21:16:46.876Z,12.87
2023-02-23T21:19:18.432Z,14.60
2023-02-23T21:21:50.895Z,13.63
2023-02-23T21:24:20.595Z,18.57
2023-02-23T21:26:48.794Z,17.13
2023-02-23T21:29:18.104Z,15.10
2023-02-23T21:31:48.837Z,14.17
2023-02-23T21:34:19.724Z,15.50
2023-02-23T21:36:51.279Z,12.80
2023-02-23T21:39:22.885Z,16.00
2023-02-23T21:41:51.326Z,11.60
2023-02-23T21:44:19.563Z,20.77
2023-02-23T21:46:47.866Z,13.77
2023-02-23T21:49:19.602Z,15.60
2023-02-23T21:51:47.878Z,13.10
2023-02-23T21:54:18.964Z,10.07
2023-02-23T21:56:47.093Z,14.67
2023-02-23T21:59:15.202Z,11.90
2023-02-23T22:01:44.047Z,12.97
2023-02-23T22:04:16.203Z,10.47
2023-02-23T22:06:49.148Z,12.93
2023-02-23T22:09:20.064Z,10.60
2023-02-23T22:11:48.873Z,11.07
2023-02-23T22:14:19.510Z,11.17
2023-02-23T22:16:49.755Z,10.80
2023-02-23T22:19:20.985Z,7.67
2023-02-23T22:21:50.570Z,14.37
2023-02-23T22:24:20.929Z,12.33
2023-02-23T22:26:54.532Z,13.53
2023-02-23T22:29:27.380Z,10.23
2023-02-23T22:31:55.648Z,9.93
2023-02-23T22:34:26.127Z,8.07
2023-02-23T22:36:55.572Z,8.97
2023-02-23T22:39:23.807Z,15.63
2023-02-23T22:41:52.020Z,9.73
2023-02-23T22:44:22.712Z,11.07
2023-02-23T22:46:53.284Z,8.90
2023-02-23T22:49:21.510Z,9.83
2023-02-23T22:51:50.644Z,12.03
2023-02-23T22:54:24.325Z,12.53
2023-02-23T22:56:55.051Z,12.70
2023-02-23T22:59:25.501Z,9.03
2023-02-23T23:01:56.443Z,9.40
2023-02-23T23:04:26.203Z,11.63
2023-02-23T23:06:54.399Z,8.80
2023-02-23T23:09:24.860Z,13.10
2023-02-23T23:11:53.463Z,9.27
2023-02-23T23:14:23.165Z,9.00
2023-02-23T23:16:54.454Z,10.13
2023-02-23T23:19:24.737Z,12.63
2023-02-23T23:21:55.540Z,8.20
2023-02-23T23:24:26.393Z,10.37
2023-02-23T23:26:56.224Z,10.93
2023-02-23T23:29:29.717Z,10.27
2023-02-23T23:31:58.414Z,5.97
2023-02-23T23:34:33.481Z,11.37
2023-02-23T23:37:02.626Z,9.23
2023-02-23T23:39:34.168Z,8.00
2023-02-23T23:42:02.803Z,5.73
2023-02-23T23:44:33.758Z,8.30
2023-02-23T23:47:05.251Z,11.47
2023-02-23T23:49:37.721Z,9.20
2023-02-23T23:52:08.142Z,9.37
2023-02-23T23:54:40.793Z,6.33
2023-02-23T23:57:11.554Z,6.07
2023-02-23T23:59:45.884Z,7.50
